North Potomac, Maryland
Current Conditions -  °F | °C
As of 7:15 PM on Monday 20 Oct 2014 (Local Time) from KGAI Reporting Station
Clear Clear  
Wind Chill: 57°   Ceiling: Unl
Heat Index: 57°   Visibility: 10mi
Dew Point: 45°   Wind: 3mph
Humidity: 63%   Direction: 140°SE
Pressure: 29.99"   Gusts: NA
Location:  39.08°N, 77.26°W
Report Text: KGAI 202315Z 14003KT 10SM CLR 14/07 A2999 RMK AO1
Loading
Personal Weather Stations






























Interactive Weather Map
Tropical Storm Tracking
New forecast layout! Learn more

10-Day Weather Forecast

Advertisements
Track Severe Weather on mobile